Terminal Aerodrome Forecast
Issued by NWS

Home | Current Version | Previous Version | Text Only | Print | Product List | Glossary On
Versions: 1 2 3 4 5 6 7 8 9 10 11 12 13 14 15 16 17 18 19
000
FTUS42 TJSJ 210500 RRA
TAFJSJ
TAF
TJSJ 210544Z 2106/2206 06005KT P6SM FEW025 SCT040 BKN060
     FM211330 07015G25KT P6SM VCSH SCT030 BKN050
     FM212230 08012KT P6SM VCTS SCT020CB BKN040=

USA.gov is the U.S. government's official web portal to all federal, state and local government web resources and services.